sensor_id;sensor_type;location;lat;lon;timestamp;P1;durP1;ratioP1;P2;durP2;ratioP2
18510;SDS011;9384;48.044;11.616;2022-08-04T00:01:27;3.50;;;2.13;;
18510;SDS011;9384;48.044;11.616;2022-08-04T00:03:58;2.20;;;2.10;;
18510;SDS011;9384;48.044;11.616;2022-08-04T00:06:33;3.13;;;2.30;;
18510;SDS011;9384;48.044;11.616;2022-08-04T00:09:11;2.27;;;2.10;;
18510;SDS011;9384;48.044;11.616;2022-08-04T00:11:43;4.47;;;2.00;;
18510;SDS011;9384;48.044;11.616;2022-08-04T00:14:12;5.30;;;2.10;;
18510;SDS011;9384;48.044;11.616;2022-08-04T00:16:40;2.67;;;2.20;;
18510;SDS011;9384;48.044;11.616;2022-08-04T00:19:11;2.10;;;2.00;;
18510;SDS011;9384;48.044;11.616;2022-08-04T00:21:46;2.83;;;2.57;;
18510;SDS011;9384;48.044;11.616;2022-08-04T00:24:16;5.73;;;2.20;;
18510;SDS011;9384;48.044;11.616;2022-08-04T00:26:45;5.50;;;2.43;;
18510;SDS011;9384;48.044;11.616;2022-08-04T00:29:12;2.27;;;2.17;;
18510;SDS011;9384;48.044;11.616;2022-08-04T00:31:40;2.10;;;2.10;;
18510;SDS011;9384;48.044;11.616;2022-08-04T00:34:08;6.27;;;2.33;;
18510;SDS011;9384;48.044;11.616;2022-08-04T00:36:37;2.57;;;2.47;;
18510;SDS011;9384;48.044;11.616;2022-08-04T00:39:06;2.30;;;2.10;;
18510;SDS011;9384;48.044;11.616;2022-08-04T00:41:38;6.13;;;2.63;;
18510;SDS011;9384;48.044;11.616;2022-08-04T00:44:21;2.80;;;2.20;;
18510;SDS011;9384;48.044;11.616;2022-08-04T00:46:59;2.10;;;2.10;;
18510;SDS011;9384;48.044;11.616;2022-08-04T00:49:45;3.07;;;2.10;;
18510;SDS011;9384;48.044;11.616;2022-08-04T00:52:29;2.97;;;2.17;;
18510;SDS011;9384;48.044;11.616;2022-08-04T00:55:09;3.03;;;2.40;;
18510;SDS011;9384;48.044;11.616;2022-08-04T00:57:51;2.33;;;2.23;;
18510;SDS011;9384;48.044;11.616;2022-08-04T01:00:32;2.10;;;2.00;;
18510;SDS011;9384;48.044;11.616;2022-08-04T01:03:12;2.00;;;2.00;;
18510;SDS011;9384;48.044;11.616;2022-08-04T01:05:46;2.27;;;2.17;;
18510;SDS011;9384;48.044;11.616;2022-08-04T01:08:33;2.70;;;2.50;;
18510;SDS011;9384;48.044;11.616;2022-08-04T01:11:18;2.60;;;2.40;;
18510;SDS011;9384;48.044;11.616;2022-08-04T01:13:59;2.63;;;2.43;;
18510;SDS011;9384;48.044;11.616;2022-08-04T01:16:43;2.50;;;2.30;;
18510;SDS011;9384;48.044;11.616;2022-08-04T01:19:16;2.67;;;2.57;;
18510;SDS011;9384;48.044;11.616;2022-08-04T01:22:17;2.63;;;2.43;;
18510;SDS011;9384;48.044;11.616;2022-08-04T01:25:02;2.43;;;2.23;;
18510;SDS011;9384;48.044;11.616;2022-08-04T01:27:53;2.33;;;2.33;;
18510;SDS011;9384;48.044;11.616;2022-08-04T01:30:34;2.40;;;2.30;;
18510;SDS011;9384;48.044;11.616;2022-08-04T01:33:04;7.97;;;2.20;;
18510;SDS011;9384;48.044;11.616;2022-08-04T01:35:38;2.83;;;2.63;;
18510;SDS011;9384;48.044;11.616;2022-08-04T01:38:14;2.93;;;2.73;;
18510;SDS011;9384;48.044;11.616;2022-08-04T01:40:43;3.03;;;2.30;;
18510;SDS011;9384;48.044;11.616;2022-08-04T01:43:11;5.87;;;3.07;;
18510;SDS011;9384;48.044;11.616;2022-08-04T01:45:40;2.57;;;2.47;;
18510;SDS011;9384;48.044;11.616;2022-08-04T01:48:08;2.20;;;2.10;;
18510;SDS011;9384;48.044;11.616;2022-08-04T01:50:37;2.30;;;2.30;;
18510;SDS011;9384;48.044;11.616;2022-08-04T01:53:08;2.30;;;2.30;;
18510;SDS011;9384;48.044;11.616;2022-08-04T01:55:35;2.63;;;2.53;;
18510;SDS011;9384;48.044;11.616;2022-08-04T01:58:03;3.53;;;2.10;;
18510;SDS011;9384;48.044;11.616;2022-08-04T02:00:31;2.40;;;2.30;;
18510;SDS011;9384;48.044;11.616;2022-08-04T02:02:59;2.67;;;2.27;;
18510;SDS011;9384;48.044;11.616;2022-08-04T02:05:26;3.80;;;2.70;;
18510;SDS011;9384;48.044;11.616;2022-08-04T02:08:00;2.33;;;2.30;;
18510;SDS011;9384;48.044;11.616;2022-08-04T02:10:34;2.30;;;2.20;;
18510;SDS011;9384;48.044;11.616;2022-08-04T02:13:16;2.87;;;2.67;;
18510;SDS011;9384;48.044;11.616;2022-08-04T02:15:51;2.43;;;2.33;;
18510;SDS011;9384;48.044;11.616;2022-08-04T02:18:27;4.10;;;2.20;;
18510;SDS011;9384;48.044;11.616;2022-08-04T02:20:57;2.00;;;2.00;;
18510;SDS011;9384;48.044;11.616;2022-08-04T02:23:29;2.23;;;1.93;;
18510;SDS011;9384;48.044;11.616;2022-08-04T02:26:01;2.17;;;2.17;;
18510;SDS011;9384;48.044;11.616;2022-08-04T02:28:32;2.23;;;2.13;;
18510;SDS011;9384;48.044;11.616;2022-08-04T02:31:02;2.23;;;2.13;;
18510;SDS011;9384;48.044;11.616;2022-08-04T02:33:38;2.40;;;2.20;;
18510;SDS011;9384;48.044;11.616;2022-08-04T02:36:09;2.60;;;2.30;;
18510;SDS011;9384;48.044;11.616;2022-08-04T02:38:42;2.80;;;1.97;;
18510;SDS011;9384;48.044;11.616;2022-08-04T02:41:21;2.30;;;2.10;;
18510;SDS011;9384;48.044;11.616;2022-08-04T02:43:51;2.60;;;2.20;;
18510;SDS011;9384;48.044;11.616;2022-08-04T02:46:20;2.43;;;2.30;;
18510;SDS011;9384;48.044;11.616;2022-08-04T02:48:50;2.43;;;2.33;;
18510;SDS011;9384;48.044;11.616;2022-08-04T02:51:23;2.73;;;2.20;;
18510;SDS011;9384;48.044;11.616;2022-08-04T02:53:52;2.00;;;2.00;;
18510;SDS011;9384;48.044;11.616;2022-08-04T02:56:21;2.57;;;2.57;;
18510;SDS011;9384;48.044;11.616;2022-08-04T02:58:51;2.20;;;2.10;;
18510;SDS011;9384;48.044;11.616;2022-08-04T03:01:21;2.50;;;2.40;;
18510;SDS011;9384;48.044;11.616;2022-08-04T03:03:52;2.53;;;2.40;;
18510;SDS011;9384;48.044;11.616;2022-08-04T03:06:52;2.47;;;2.27;;
18510;SDS011;9384;48.044;11.616;2022-08-04T03:09:55;2.50;;;2.27;;
18510;SDS011;9384;48.044;11.616;2022-08-04T03:15:54;2.43;;;2.33;;
18510;SDS011;9384;48.044;11.616;2022-08-04T03:18:52;2.60;;;2.40;;
18510;SDS011;9384;48.044;11.616;2022-08-04T03:25:22;3.13;;;2.83;;
18510;SDS011;9384;48.044;11.616;2022-08-04T03:28:22;2.43;;;2.30;;
18510;SDS011;9384;48.044;11.616;2022-08-04T03:31:09;2.30;;;2.20;;
18510;SDS011;9384;48.044;11.616;2022-08-04T03:34:01;2.60;;;2.50;;
18510;SDS011;9384;48.044;11.616;2022-08-04T03:39:57;2.60;;;2.43;;
18510;SDS011;9384;48.044;11.616;2022-08-04T03:42:56;2.87;;;2.43;;
18510;SDS011;9384;48.044;11.616;2022-08-04T03:46:04;2.60;;;2.40;;
18510;SDS011;9384;48.044;11.616;2022-08-04T03:49:03;2.53;;;2.43;;
18510;SDS011;9384;48.044;11.616;2022-08-04T03:51:45;4.37;;;2.83;;
18510;SDS011;9384;48.044;11.616;2022-08-04T03:54:55;2.40;;;2.20;;
18510;SDS011;9384;48.044;11.616;2022-08-04T03:57:46;2.50;;;2.40;;
18510;SDS011;9384;48.044;11.616;2022-08-04T04:00:29;2.87;;;2.70;;
18510;SDS011;9384;48.044;11.616;2022-08-04T04:03:22;2.47;;;2.30;;
18510;SDS011;9384;48.044;11.616;2022-08-04T04:12:16;4.57;;;2.77;;
18510;SDS011;9384;48.044;11.616;2022-08-04T04:14:58;2.30;;;2.20;;
18510;SDS011;9384;48.044;11.616;2022-08-04T04:17:40;2.70;;;2.50;;
18510;SDS011;9384;48.044;11.616;2022-08-04T04:20:32;3.20;;;2.63;;
18510;SDS011;9384;48.044;11.616;2022-08-04T04:23:40;2.70;;;2.50;;
18510;SDS011;9384;48.044;11.616;2022-08-04T04:26:37;3.50;;;2.70;;
18510;SDS011;9384;48.044;11.616;2022-08-04T04:29:18;2.37;;;2.27;;
18510;SDS011;9384;48.044;11.616;2022-08-04T04:32:11;6.63;;;3.00;;
18510;SDS011;9384;48.044;11.616;2022-08-04T04:34:49;4.07;;;2.80;;
18510;SDS011;9384;48.044;11.616;2022-08-04T04:37:42;3.50;;;2.70;;
18510;SDS011;9384;48.044;11.616;2022-08-04T04:40:24;6.63;;;2.70;;
18510;SDS011;9384;48.044;11.616;2022-08-04T04:43:10;5.33;;;2.60;;
18510;SDS011;9384;48.044;11.616;2022-08-04T04:45:51;3.70;;;2.70;;
18510;SDS011;9384;48.044;11.616;2022-08-04T04:48:26;2.80;;;2.70;;
18510;SDS011;9384;48.044;11.616;2022-08-04T04:51:04;2.83;;;2.73;;
18510;SDS011;9384;48.044;11.616;2022-08-04T04:53:39;3.47;;;3.20;;
18510;SDS011;9384;48.044;11.616;2022-08-04T04:56:15;3.43;;;2.67;;
18510;SDS011;9384;48.044;11.616;2022-08-04T04:58:50;2.93;;;2.83;;
18510;SDS011;9384;48.044;11.616;2022-08-04T05:01:24;3.00;;;2.67;;
18510;SDS011;9384;48.044;11.616;2022-08-04T05:04:19;4.03;;;2.90;;
18510;SDS011;9384;48.044;11.616;2022-08-04T05:10:17;5.57;;;3.00;;
18510;SDS011;9384;48.044;11.616;2022-08-04T05:12:59;4.33;;;2.73;;
18510;SDS011;9384;48.044;11.616;2022-08-04T05:15:39;4.70;;;2.80;;
18510;SDS011;9384;48.044;11.616;2022-08-04T05:18:09;2.73;;;2.63;;
18510;SDS011;9384;48.044;11.616;2022-08-04T05:20:41;4.73;;;2.83;;
18510;SDS011;9384;48.044;11.616;2022-08-04T05:23:12;3.00;;;2.67;;
18510;SDS011;9384;48.044;11.616;2022-08-04T05:25:51;2.93;;;2.53;;
18510;SDS011;9384;48.044;11.616;2022-08-04T05:28:23;6.87;;;2.80;;
18510;SDS011;9384;48.044;11.616;2022-08-04T05:30:56;3.47;;;2.73;;
18510;SDS011;9384;48.044;11.616;2022-08-04T05:33:25;2.87;;;2.77;;
18510;SDS011;9384;48.044;11.616;2022-08-04T05:35:58;5.13;;;2.50;;
18510;SDS011;9384;48.044;11.616;2022-08-04T05:38:33;6.03;;;2.63;;
18510;SDS011;9384;48.044;11.616;2022-08-04T05:41:03;9.87;;;2.87;;
18510;SDS011;9384;48.044;11.616;2022-08-04T05:43:32;5.13;;;3.27;;
18510;SDS011;9384;48.044;11.616;2022-08-04T05:46:00;3.70;;;2.50;;
18510;SDS011;9384;48.044;11.616;2022-08-04T05:48:27;3.70;;;2.77;;
18510;SDS011;9384;48.044;11.616;2022-08-04T05:50:55;11.50;;;3.30;;
18510;SDS011;9384;48.044;11.616;2022-08-04T05:53:23;4.23;;;2.60;;
18510;SDS011;9384;48.044;11.616;2022-08-04T05:55:51;5.97;;;2.67;;
18510;SDS011;9384;48.044;11.616;2022-08-04T05:58:18;11.43;;;3.10;;
18510;SDS011;9384;48.044;11.616;2022-08-04T06:00:47;5.97;;;2.83;;
18510;SDS011;9384;48.044;11.616;2022-08-04T06:03:16;6.23;;;3.00;;
18510;SDS011;9384;48.044;11.616;2022-08-04T06:05:45;9.97;;;3.07;;
18510;SDS011;9384;48.044;11.616;2022-08-04T06:08:14;4.43;;;3.00;;
18510;SDS011;9384;48.044;11.616;2022-08-04T06:10:41;8.27;;;3.17;;
18510;SDS011;9384;48.044;11.616;2022-08-04T06:13:11;3.43;;;3.10;;
18510;SDS011;9384;48.044;11.616;2022-08-04T06:15:40;6.47;;;3.13;;
18510;SDS011;9384;48.044;11.616;2022-08-04T06:18:11;10.77;;;3.47;;
18510;SDS011;9384;48.044;11.616;2022-08-04T06:20:39;3.20;;;3.00;;
18510;SDS011;9384;48.044;11.616;2022-08-04T06:23:09;3.87;;;2.93;;
18510;SDS011;9384;48.044;11.616;2022-08-04T06:25:40;6.50;;;3.63;;
18510;SDS011;9384;48.044;11.616;2022-08-04T06:28:10;12.23;;;3.20;;
18510;SDS011;9384;48.044;11.616;2022-08-04T06:30:38;7.83;;;3.47;;
18510;SDS011;9384;48.044;11.616;2022-08-04T06:33:06;7.17;;;3.37;;
18510;SDS011;9384;48.044;11.616;2022-08-04T06:35:50;14.03;;;3.47;;
18510;SDS011;9384;48.044;11.616;2022-08-04T06:38:19;5.63;;;3.30;;
18510;SDS011;9384;48.044;11.616;2022-08-04T06:40:47;9.70;;;3.03;;
18510;SDS011;9384;48.044;11.616;2022-08-04T06:43:14;5.47;;;3.20;;
18510;SDS011;9384;48.044;11.616;2022-08-04T06:45:42;9.80;;;3.40;;
18510;SDS011;9384;48.044;11.616;2022-08-04T06:48:11;3.87;;;2.97;;
18510;SDS011;9384;48.044;11.616;2022-08-04T06:50:40;5.30;;;3.03;;
18510;SDS011;9384;48.044;11.616;2022-08-04T06:53:10;3.67;;;2.77;;
18510;SDS011;9384;48.044;11.616;2022-08-04T06:55:38;7.57;;;2.80;;
18510;SDS011;9384;48.044;11.616;2022-08-04T06:58:06;3.63;;;3.20;;
18510;SDS011;9384;48.044;11.616;2022-08-04T07:00:33;4.70;;;2.80;;
18510;SDS011;9384;48.044;11.616;2022-08-04T07:03:01;3.40;;;3.00;;
18510;SDS011;9384;48.044;11.616;2022-08-04T07:05:29;2.93;;;2.77;;
18510;SDS011;9384;48.044;11.616;2022-08-04T07:07:57;2.80;;;2.60;;
18510;SDS011;9384;48.044;11.616;2022-08-04T07:10:26;5.27;;;3.10;;
18510;SDS011;9384;48.044;11.616;2022-08-04T07:12:53;3.77;;;2.70;;
18510;SDS011;9384;48.044;11.616;2022-08-04T07:15:22;2.73;;;2.53;;
18510;SDS011;9384;48.044;11.616;2022-08-04T07:17:50;3.83;;;3.00;;
18510;SDS011;9384;48.044;11.616;2022-08-04T07:20:17;3.27;;;2.63;;
18510;SDS011;9384;48.044;11.616;2022-08-04T07:22:44;2.97;;;2.77;;
18510;SDS011;9384;48.044;11.616;2022-08-04T07:25:14;3.07;;;2.73;;
18510;SDS011;9384;48.044;11.616;2022-08-04T07:27:42;3.33;;;3.10;;
18510;SDS011;9384;48.044;11.616;2022-08-04T07:30:09;3.40;;;3.10;;
18510;SDS011;9384;48.044;11.616;2022-08-04T07:32:37;3.87;;;3.20;;
18510;SDS011;9384;48.044;11.616;2022-08-04T07:35:05;3.97;;;2.87;;
18510;SDS011;9384;48.044;11.616;2022-08-04T07:37:33;8.57;;;3.20;;
18510;SDS011;9384;48.044;11.616;2022-08-04T07:40:00;2.53;;;2.50;;
18510;SDS011;9384;48.044;11.616;2022-08-04T07:42:27;2.83;;;2.70;;
18510;SDS011;9384;48.044;11.616;2022-08-04T07:44:56;3.00;;;2.70;;
18510;SDS011;9384;48.044;11.616;2022-08-04T07:47:23;2.97;;;2.73;;
18510;SDS011;9384;48.044;11.616;2022-08-04T07:49:51;2.50;;;2.30;;
18510;SDS011;9384;48.044;11.616;2022-08-04T07:52:18;2.77;;;2.67;;
18510;SDS011;9384;48.044;11.616;2022-08-04T07:54:46;2.50;;;2.30;;
18510;SDS011;9384;48.044;11.616;2022-08-04T07:57:15;2.57;;;2.37;;
18510;SDS011;9384;48.044;11.616;2022-08-04T07:59:44;2.80;;;2.60;;
18510;SDS011;9384;48.044;11.616;2022-08-04T08:02:13;2.83;;;2.63;;
18510;SDS011;9384;48.044;11.616;2022-08-04T08:04:40;2.53;;;2.42;;
18510;SDS011;9384;48.044;11.616;2022-08-04T08:07:08;2.17;;;2.17;;
18510;SDS011;9384;48.044;11.616;2022-08-04T08:09:35;2.47;;;2.37;;
18510;SDS011;9384;48.044;11.616;2022-08-04T08:12:03;2.67;;;2.58;;
18510;SDS011;9384;48.044;11.616;2022-08-04T08:14:32;2.45;;;2.45;;
18510;SDS011;9384;48.044;11.616;2022-08-04T08:17:00;2.85;;;2.75;;
18510;SDS011;9384;48.044;11.616;2022-08-04T08:19:29;2.50;;;2.40;;
18510;SDS011;9384;48.044;11.616;2022-08-04T08:21:56;3.78;;;2.83;;
18510;SDS011;9384;48.044;11.616;2022-08-04T08:24:23;3.05;;;2.75;;
18510;SDS011;9384;48.044;11.616;2022-08-04T08:26:50;2.30;;;2.30;;
18510;SDS011;9384;48.044;11.616;2022-08-04T08:29:17;2.53;;;2.42;;
18510;SDS011;9384;48.044;11.616;2022-08-04T08:31:45;2.35;;;2.10;;
18510;SDS011;9384;48.044;11.616;2022-08-04T08:34:12;2.45;;;2.35;;
18510;SDS011;9384;48.044;11.616;2022-08-04T08:36:43;2.13;;;2.03;;
18510;SDS011;9384;48.044;11.616;2022-08-04T08:39:15;2.70;;;2.42;;
18510;SDS011;9384;48.044;11.616;2022-08-04T08:41:53;2.90;;;2.80;;
18510;SDS011;9384;48.044;11.616;2022-08-04T08:48:00;2.67;;;2.33;;
18510;SDS011;9384;48.044;11.616;2022-08-04T08:53:51;2.60;;;2.50;;
18510;SDS011;9384;48.044;11.616;2022-08-04T08:56:32;2.33;;;2.22;;
18510;SDS011;9384;48.044;11.616;2022-08-04T09:02:06;2.90;;;2.75;;
18510;SDS011;9384;48.044;11.616;2022-08-04T09:04:58;2.72;;;2.63;;
18510;SDS011;9384;48.044;11.616;2022-08-04T09:07:53;2.17;;;2.08;;
18510;SDS011;9384;48.044;11.616;2022-08-04T09:10:35;2.38;;;2.30;;
18510;SDS011;9384;48.044;11.616;2022-08-04T09:13:08;2.50;;;2.30;;
18510;SDS011;9384;48.044;11.616;2022-08-04T09:15:40;2.60;;;2.50;;
18510;SDS011;9384;48.044;11.616;2022-08-04T09:18:17;2.85;;;2.75;;
18510;SDS011;9384;48.044;11.616;2022-08-04T09:20:49;2.47;;;2.38;;
18510;SDS011;9384;48.044;11.616;2022-08-04T09:23:22;2.60;;;2.50;;
18510;SDS011;9384;48.044;11.616;2022-08-04T09:25:59;6.93;;;2.42;;
18510;SDS011;9384;48.044;11.616;2022-08-04T09:28:34;2.40;;;2.20;;
18510;SDS011;9384;48.044;11.616;2022-08-04T09:31:10;2.35;;;2.25;;
18510;SDS011;9384;48.044;11.616;2022-08-04T09:33:41;2.30;;;2.20;;
18510;SDS011;9384;48.044;11.616;2022-08-04T09:36:14;3.38;;;2.00;;
18510;SDS011;9384;48.044;11.616;2022-08-04T09:38:58;2.55;;;2.40;;
18510;SDS011;9384;48.044;11.616;2022-08-04T09:41:34;2.42;;;2.20;;
18510;SDS011;9384;48.044;11.616;2022-08-04T09:44:07;1.98;;;1.88;;
18510;SDS011;9384;48.044;11.616;2022-08-04T09:46:48;2.40;;;2.40;;
18510;SDS011;9384;48.044;11.616;2022-08-04T09:49:26;3.70;;;2.75;;
18510;SDS011;9384;48.044;11.616;2022-08-04T09:51:58;1.98;;;1.80;;
18510;SDS011;9384;48.044;11.616;2022-08-04T09:54:36;1.95;;;1.90;;
18510;SDS011;9384;48.044;11.616;2022-08-04T09:57:13;2.33;;;2.22;;
18510;SDS011;9384;48.044;11.616;2022-08-04T09:59:52;2.28;;;2.17;;
18510;SDS011;9384;48.044;11.616;2022-08-04T10:02:23;1.98;;;1.98;;
18510;SDS011;9384;48.044;11.616;2022-08-04T10:04:54;2.40;;;2.30;;
18510;SDS011;9384;48.044;11.616;2022-08-04T10:07:28;1.98;;;1.98;;
18510;SDS011;9384;48.044;11.616;2022-08-04T10:10:25;2.08;;;1.98;;
18510;SDS011;9384;48.044;11.616;2022-08-04T10:13:08;3.08;;;1.95;;
18510;SDS011;9384;48.044;11.616;2022-08-04T10:15:50;1.70;;;1.70;;
18510;SDS011;9384;48.044;11.616;2022-08-04T10:18:36;2.42;;;1.70;;
18510;SDS011;9384;48.044;11.616;2022-08-04T10:21:10;2.08;;;2.00;;
18510;SDS011;9384;48.044;11.616;2022-08-04T10:23:50;1.83;;;1.83;;
18510;SDS011;9384;48.044;11.616;2022-08-04T10:26:32;2.30;;;2.10;;
18510;SDS011;9384;48.044;11.616;2022-08-04T10:29:08;1.70;;;1.70;;
18510;SDS011;9384;48.044;11.616;2022-08-04T10:31:41;3.53;;;2.10;;
18510;SDS011;9384;48.044;11.616;2022-08-04T10:34:12;2.17;;;2.08;;
18510;SDS011;9384;48.044;11.616;2022-08-04T10:36:47;2.10;;;2.00;;
18510;SDS011;9384;48.044;11.616;2022-08-04T10:39:21;2.13;;;1.90;;
18510;SDS011;9384;48.044;11.616;2022-08-04T10:41:55;2.97;;;1.90;;
18510;SDS011;9384;48.044;11.616;2022-08-04T10:44:37;3.35;;;2.10;;
18510;SDS011;9384;48.044;11.616;2022-08-04T10:47:13;1.75;;;1.75;;
18510;SDS011;9384;48.044;11.616;2022-08-04T10:49:44;1.75;;;1.75;;
18510;SDS011;9384;48.044;11.616;2022-08-04T10:52:13;1.90;;;1.80;;
18510;SDS011;9384;48.044;11.616;2022-08-04T10:54:46;1.88;;;1.88;;
18510;SDS011;9384;48.044;11.616;2022-08-04T10:57:18;2.03;;;2.03;;
18510;SDS011;9384;48.044;11.616;2022-08-04T10:59:54;2.00;;;2.00;;
18510;SDS011;9384;48.044;11.616;2022-08-04T11:02:27;2.63;;;2.42;;
18510;SDS011;9384;48.044;11.616;2022-08-04T11:05:04;2.67;;;2.17;;
18510;SDS011;9384;48.044;11.616;2022-08-04T11:07:43;2.85;;;1.88;;
18510;SDS011;9384;48.044;11.616;2022-08-04T11:10:12;2.30;;;2.20;;
18510;SDS011;9384;48.044;11.616;2022-08-04T11:12:42;1.85;;;1.75;;
18510;SDS011;9384;48.044;11.616;2022-08-04T11:15:15;2.20;;;1.95;;
18510;SDS011;9384;48.044;11.616;2022-08-04T11:17:49;2.00;;;1.90;;
18510;SDS011;9384;48.044;11.616;2022-08-04T11:20:23;4.75;;;2.17;;
18510;SDS011;9384;48.044;11.616;2022-08-04T11:23:04;2.00;;;1.90;;
18510;SDS011;9384;48.044;11.616;2022-08-04T11:25:35;7.20;;;2.53;;
18510;SDS011;9384;48.044;11.616;2022-08-04T11:28:10;3.40;;;1.90;;
18510;SDS011;9384;48.044;11.616;2022-08-04T11:30:50;2.38;;;1.80;;
18510;SDS011;9384;48.044;11.616;2022-08-04T11:33:25;3.33;;;1.95;;
18510;SDS011;9384;48.044;11.616;2022-08-04T11:35:59;2.20;;;2.10;;
18510;SDS011;9384;48.044;11.616;2022-08-04T11:38:35;2.25;;;2.15;;
18510;SDS011;9384;48.044;11.616;2022-08-04T11:41:11;2.22;;;2.03;;
18510;SDS011;9384;48.044;11.616;2022-08-04T11:43:44;2.90;;;2.20;;
18510;SDS011;9384;48.044;11.616;2022-08-04T11:46:21;1.77;;;1.77;;
18510;SDS011;9384;48.044;11.616;2022-08-04T11:48:52;2.28;;;1.80;;
18510;SDS011;9384;48.044;11.616;2022-08-04T11:51:25;4.85;;;1.67;;
18510;SDS011;9384;48.044;11.616;2022-08-04T11:53:54;1.70;;;1.70;;
18510;SDS011;9384;48.044;11.616;2022-08-04T11:56:23;1.73;;;1.73;;
18510;SDS011;9384;48.044;11.616;2022-08-04T11:58:50;3.13;;;1.90;;
18510;SDS011;9384;48.044;11.616;2022-08-04T12:01:20;1.75;;;1.75;;
18510;SDS011;9384;48.044;11.616;2022-08-04T12:03:58;1.83;;;1.83;;
18510;SDS011;9384;48.044;11.616;2022-08-04T12:06:29;1.80;;;1.80;;
18510;SDS011;9384;48.044;11.616;2022-08-04T12:09:08;1.65;;;1.65;;
18510;SDS011;9384;48.044;11.616;2022-08-04T12:11:45;2.38;;;2.17;;
18510;SDS011;9384;48.044;11.616;2022-08-04T12:14:25;3.28;;;2.05;;
18510;SDS011;9384;48.044;11.616;2022-08-04T12:16:57;2.35;;;2.10;;
18510;SDS011;9384;48.044;11.616;2022-08-04T12:19:28;3.53;;;1.70;;
18510;SDS011;9384;48.044;11.616;2022-08-04T12:21:58;1.83;;;1.83;;
18510;SDS011;9384;48.044;11.616;2022-08-04T12:24:32;2.00;;;2.00;;
18510;SDS011;9384;48.044;11.616;2022-08-04T12:27:04;2.00;;;1.90;;
18510;SDS011;9384;48.044;11.616;2022-08-04T12:29:42;1.80;;;1.77;;
18510;SDS011;9384;48.044;11.616;2022-08-04T12:32:19;2.00;;;1.90;;
18510;SDS011;9384;48.044;11.616;2022-08-04T12:34:52;2.03;;;1.92;;
18510;SDS011;9384;48.044;11.616;2022-08-04T12:37:33;3.42;;;1.80;;
18510;SDS011;9384;48.044;11.616;2022-08-04T12:40:12;2.53;;;2.03;;
18510;SDS011;9384;48.044;11.616;2022-08-04T12:42:43;1.80;;;1.80;;
18510;SDS011;9384;48.044;11.616;2022-08-04T12:45:17;1.85;;;1.60;;
18510;SDS011;9384;48.044;11.616;2022-08-04T12:47:47;2.15;;;1.67;;
18510;SDS011;9384;48.044;11.616;2022-08-04T12:50:15;1.60;;;1.60;;
18510;SDS011;9384;48.044;11.616;2022-08-04T12:52:45;1.92;;;1.90;;
18510;SDS011;9384;48.044;11.616;2022-08-04T12:55:16;1.85;;;1.75;;
18510;SDS011;9384;48.044;11.616;2022-08-04T12:57:45;1.92;;;1.83;;
18510;SDS011;9384;48.044;11.616;2022-08-04T13:00:21;2.17;;;1.90;;
18510;SDS011;9384;48.044;11.616;2022-08-04T13:02:53;2.60;;;1.90;;
18510;SDS011;9384;48.044;11.616;2022-08-04T13:05:27;1.40;;;1.40;;
18510;SDS011;9384;48.044;11.616;2022-08-04T13:07:55;1.95;;;1.70;;
18510;SDS011;9384;48.044;11.616;2022-08-04T13:10:25;3.92;;;1.73;;
18510;SDS011;9384;48.044;11.616;2022-08-04T13:12:55;1.52;;;1.52;;
18510;SDS011;9384;48.044;11.616;2022-08-04T13:15:24;2.05;;;2.00;;
18510;SDS011;9384;48.044;11.616;2022-08-04T13:17:54;1.77;;;1.77;;
18510;SDS011;9384;48.044;11.616;2022-08-04T13:20:24;1.60;;;1.60;;
18510;SDS011;9384;48.044;11.616;2022-08-04T13:22:56;1.67;;;1.65;;
18510;SDS011;9384;48.044;11.616;2022-08-04T13:25:27;1.52;;;1.52;;
18510;SDS011;9384;48.044;11.616;2022-08-04T13:27:56;2.00;;;1.90;;
18510;SDS011;9384;48.044;11.616;2022-08-04T13:30:24;2.10;;;2.00;;
18510;SDS011;9384;48.044;11.616;2022-08-04T13:32:53;1.98;;;1.92;;
18510;SDS011;9384;48.044;11.616;2022-08-04T13:35:22;2.35;;;1.80;;
18510;SDS011;9384;48.044;11.616;2022-08-04T13:37:51;2.75;;;1.70;;
18510;SDS011;9384;48.044;11.616;2022-08-04T13:40:21;1.83;;;1.73;;
18510;SDS011;9384;48.044;11.616;2022-08-04T13:42:51;1.90;;;1.80;;
18510;SDS011;9384;48.044;11.616;2022-08-04T13:45:20;2.10;;;1.98;;
18510;SDS011;9384;48.044;11.616;2022-08-04T13:47:48;1.95;;;1.80;;
18510;SDS011;9384;48.044;11.616;2022-08-04T13:50:17;1.85;;;1.75;;
18510;SDS011;9384;48.044;11.616;2022-08-04T13:52:50;3.65;;;2.00;;
18510;SDS011;9384;48.044;11.616;2022-08-04T13:55:21;2.13;;;1.77;;
18510;SDS011;9384;48.044;11.616;2022-08-04T13:57:54;3.20;;;2.20;;
18510;SDS011;9384;48.044;11.616;2022-08-04T14:00:36;2.05;;;1.92;;
18510;SDS011;9384;48.044;11.616;2022-08-04T14:03:07;5.00;;;1.70;;
18510;SDS011;9384;48.044;11.616;2022-08-04T14:05:38;1.98;;;1.90;;
18510;SDS011;9384;48.044;11.616;2022-08-04T14:08:10;2.10;;;1.85;;
18510;SDS011;9384;48.044;11.616;2022-08-04T14:10:40;2.00;;;2.00;;
18510;SDS011;9384;48.044;11.616;2022-08-04T14:13:09;1.95;;;1.73;;
18510;SDS011;9384;48.044;11.616;2022-08-04T14:15:36;1.90;;;1.90;;
18510;SDS011;9384;48.044;11.616;2022-08-04T14:18:15;3.20;;;1.92;;
18510;SDS011;9384;48.044;11.616;2022-08-04T14:20:57;2.78;;;1.80;;
18510;SDS011;9384;48.044;11.616;2022-08-04T14:23:25;2.70;;;1.90;;
18510;SDS011;9384;48.044;11.616;2022-08-04T14:25:52;1.63;;;1.63;;
18510;SDS011;9384;48.044;11.616;2022-08-04T14:28:30;2.20;;;2.00;;
18510;SDS011;9384;48.044;11.616;2022-08-04T14:31:07;2.22;;;1.80;;
18510;SDS011;9384;48.044;11.616;2022-08-04T14:33:36;1.67;;;1.60;;
18510;SDS011;9384;48.044;11.616;2022-08-04T14:36:04;1.70;;;1.70;;
18510;SDS011;9384;48.044;11.616;2022-08-04T14:38:41;1.75;;;1.65;;
18510;SDS011;9384;48.044;11.616;2022-08-04T14:41:16;1.90;;;1.65;;
18510;SDS011;9384;48.044;11.616;2022-08-04T14:43:47;2.67;;;1.88;;
18510;SDS011;9384;48.044;11.616;2022-08-04T14:46:16;4.03;;;2.00;;
18510;SDS011;9384;48.044;11.616;2022-08-04T14:48:59;2.20;;;1.92;;
18510;SDS011;9384;48.044;11.616;2022-08-04T14:51:38;2.63;;;1.40;;
18510;SDS011;9384;48.044;11.616;2022-08-04T14:54:06;2.22;;;2.22;;
18510;SDS011;9384;48.044;11.616;2022-08-04T14:56:34;2.00;;;1.85;;
18510;SDS011;9384;48.044;11.616;2022-08-04T14:59:04;2.30;;;1.80;;
18510;SDS011;9384;48.044;11.616;2022-08-04T15:01:33;1.80;;;1.70;;
18510;SDS011;9384;48.044;11.616;2022-08-04T15:04:01;1.85;;;1.75;;
18510;SDS011;9384;48.044;11.616;2022-08-04T15:06:29;1.58;;;1.58;;
18510;SDS011;9384;48.044;11.616;2022-08-04T15:08:59;1.95;;;1.95;;
18510;SDS011;9384;48.044;11.616;2022-08-04T15:11:27;2.13;;;2.03;;
18510;SDS011;9384;48.044;11.616;2022-08-04T15:13:56;3.55;;;2.20;;
18510;SDS011;9384;48.044;11.616;2022-08-04T15:16:25;3.88;;;1.88;;
18510;SDS011;9384;48.044;11.616;2022-08-04T15:18:54;1.63;;;1.42;;
18510;SDS011;9384;48.044;11.616;2022-08-04T15:21:22;1.65;;;1.52;;
18510;SDS011;9384;48.044;11.616;2022-08-04T15:23:49;1.65;;;1.55;;
18510;SDS011;9384;48.044;11.616;2022-08-04T15:26:17;1.67;;;1.63;;
18510;SDS011;9384;48.044;11.616;2022-08-04T15:28:49;3.58;;;1.75;;
18510;SDS011;9384;48.044;11.616;2022-08-04T15:31:19;2.08;;;1.60;;
18510;SDS011;9384;48.044;11.616;2022-08-04T15:33:49;1.90;;;1.83;;
18510;SDS011;9384;48.044;11.616;2022-08-04T15:36:20;2.28;;;1.30;;
18510;SDS011;9384;48.044;11.616;2022-08-04T15:38:54;1.73;;;1.73;;
18510;SDS011;9384;48.044;11.616;2022-08-04T15:41:30;1.23;;;1.23;;
18510;SDS011;9384;48.044;11.616;2022-08-04T15:44:16;4.35;;;1.80;;
18510;SDS011;9384;48.044;11.616;2022-08-04T15:47:11;1.50;;;1.50;;
18510;SDS011;9384;48.044;11.616;2022-08-04T15:49:40;2.35;;;1.60;;
18510;SDS011;9384;48.044;11.616;2022-08-04T15:52:08;1.70;;;1.60;;
18510;SDS011;9384;48.044;11.616;2022-08-04T15:54:36;1.98;;;1.70;;
18510;SDS011;9384;48.044;11.616;2022-08-04T15:57:04;1.77;;;1.77;;
18510;SDS011;9384;48.044;11.616;2022-08-04T16:02:28;6.55;;;1.67;;